sensor_id;sensor_type;location;lat;lon;timestamp;P1;durP1;ratioP1;P2;durP2;ratioP2
66609;SDS011;53468;48.276;14.416;2023-03-01T00:00:26;18.95;;;9.77;;
66609;SDS011;53468;48.276;14.416;2023-03-01T00:05:29;18.13;;;8.93;;
66609;SDS011;53468;48.276;14.416;2023-03-01T00:10:32;19.83;;;9.77;;
66609;SDS011;53468;48.276;14.416;2023-03-01T00:15:37;14.73;;;8.43;;
66609;SDS011;53468;48.276;14.416;2023-03-01T00:20:41;19.92;;;10.25;;
66609;SDS011;53468;48.276;14.416;2023-03-01T00:25:51;17.67;;;9.25;;
66609;SDS011;53468;48.276;14.416;2023-03-01T00:30:54;17.85;;;9.80;;
66609;SDS011;53468;48.276;14.416;2023-03-01T00:35:58;20.45;;;10.68;;
66609;SDS011;53468;48.276;14.416;2023-03-01T00:41:02;21.13;;;10.93;;
66609;SDS011;53468;48.276;14.416;2023-03-01T00:46:06;21.27;;;11.35;;
66609;SDS011;53468;48.276;14.416;2023-03-01T00:51:11;21.88;;;11.25;;
66609;SDS011;53468;48.276;14.416;2023-03-01T00:56:15;19.65;;;10.25;;
66609;SDS011;53468;48.276;14.416;2023-03-01T01:01:18;21.70;;;11.73;;
66609;SDS011;53468;48.276;14.416;2023-03-01T01:06:24;22.35;;;11.98;;
66609;SDS011;53468;48.276;14.416;2023-03-01T01:11:28;23.38;;;10.13;;
66609;SDS011;53468;48.276;14.416;2023-03-01T01:16:30;21.75;;;11.52;;
66609;SDS011;53468;48.276;14.416;2023-03-01T01:21:34;19.30;;;10.82;;
66609;SDS011;53468;48.276;14.416;2023-03-01T01:26:36;17.95;;;10.75;;
66609;SDS011;53468;48.276;14.416;2023-03-01T01:31:39;22.95;;;11.18;;
66609;SDS011;53468;48.276;14.416;2023-03-01T01:36:46;21.00;;;10.45;;
66609;SDS011;53468;48.276;14.416;2023-03-01T01:41:49;24.27;;;11.18;;
66609;SDS011;53468;48.276;14.416;2023-03-01T01:46:52;25.48;;;11.73;;
66609;SDS011;53468;48.276;14.416;2023-03-01T01:52:00;22.48;;;11.70;;
66609;SDS011;53468;48.276;14.416;2023-03-01T01:57:07;22.52;;;11.27;;
66609;SDS011;53468;48.276;14.416;2023-03-01T02:02:13;21.45;;;12.23;;
66609;SDS011;53468;48.276;14.416;2023-03-01T02:07:17;24.65;;;11.07;;
66609;SDS011;53468;48.276;14.416;2023-03-01T02:12:23;20.63;;;10.82;;
66609;SDS011;53468;48.276;14.416;2023-03-01T02:17:26;23.17;;;10.68;;
66609;SDS011;53468;48.276;14.416;2023-03-01T02:22:30;23.63;;;11.60;;
66609;SDS011;53468;48.276;14.416;2023-03-01T02:27:38;20.73;;;11.45;;
66609;SDS011;53468;48.276;14.416;2023-03-01T02:32:49;24.08;;;11.25;;
66609;SDS011;53468;48.276;14.416;2023-03-01T02:37:53;26.42;;;11.88;;
66609;SDS011;53468;48.276;14.416;2023-03-01T02:42:57;20.55;;;11.38;;
66609;SDS011;53468;48.276;14.416;2023-03-01T02:48:01;22.35;;;11.73;;
66609;SDS011;53468;48.276;14.416;2023-03-01T02:53:04;21.80;;;12.90;;
66609;SDS011;53468;48.276;14.416;2023-03-01T02:58:12;22.02;;;11.15;;
66609;SDS011;53468;48.276;14.416;2023-03-01T03:03:16;22.20;;;11.50;;
66609;SDS011;53468;48.276;14.416;2023-03-01T03:08:20;27.17;;;13.68;;
66609;SDS011;53468;48.276;14.416;2023-03-01T03:13:23;21.33;;;11.68;;
66609;SDS011;53468;48.276;14.416;2023-03-01T03:18:30;27.13;;;13.73;;
66609;SDS011;53468;48.276;14.416;2023-03-01T03:23:32;22.50;;;11.63;;
66609;SDS011;53468;48.276;14.416;2023-03-01T03:28:34;28.83;;;12.60;;
66609;SDS011;53468;48.276;14.416;2023-03-01T03:33:41;22.83;;;11.32;;
66609;SDS011;53468;48.276;14.416;2023-03-01T03:38:43;20.98;;;11.68;;
66609;SDS011;53468;48.276;14.416;2023-03-01T03:43:45;23.02;;;12.00;;
66609;SDS011;53468;48.276;14.416;2023-03-01T03:48:50;22.63;;;11.90;;
66609;SDS011;53468;48.276;14.416;2023-03-01T03:53:52;21.23;;;11.10;;
66609;SDS011;53468;48.276;14.416;2023-03-01T03:58:54;24.15;;;12.30;;
66609;SDS011;53468;48.276;14.416;2023-03-01T04:03:58;23.50;;;13.35;;
66609;SDS011;53468;48.276;14.416;2023-03-01T04:09:04;27.15;;;11.90;;
66609;SDS011;53468;48.276;14.416;2023-03-01T04:14:06;21.13;;;10.82;;
66609;SDS011;53468;48.276;14.416;2023-03-01T04:19:09;31.95;;;13.02;;
66609;SDS011;53468;48.276;14.416;2023-03-01T04:24:11;25.70;;;11.95;;
66609;SDS011;53468;48.276;14.416;2023-03-01T04:29:13;21.83;;;11.05;;
66609;SDS011;53468;48.276;14.416;2023-03-01T04:34:16;21.80;;;11.95;;
66609;SDS011;53468;48.276;14.416;2023-03-01T04:39:18;26.42;;;12.68;;
66609;SDS011;53468;48.276;14.416;2023-03-01T04:44:21;28.13;;;13.43;;
66609;SDS011;53468;48.276;14.416;2023-03-01T04:49:24;21.10;;;11.07;;
66609;SDS011;53468;48.276;14.416;2023-03-01T04:54:26;30.48;;;13.73;;
66609;SDS011;53468;48.276;14.416;2023-03-01T04:59:29;30.23;;;14.93;;
66609;SDS011;53468;48.276;14.416;2023-03-01T05:04:32;25.67;;;13.32;;
66609;SDS011;53468;48.276;14.416;2023-03-01T05:09:34;30.75;;;13.07;;
66609;SDS011;53468;48.276;14.416;2023-03-01T05:14:36;27.20;;;13.73;;
66609;SDS011;53468;48.276;14.416;2023-03-01T05:19:40;29.38;;;13.00;;
66609;SDS011;53468;48.276;14.416;2023-03-01T05:24:42;26.40;;;13.15;;
66609;SDS011;53468;48.276;14.416;2023-03-01T05:29:44;23.77;;;12.98;;
66609;SDS011;53468;48.276;14.416;2023-03-01T05:34:48;25.27;;;13.05;;
66609;SDS011;53468;48.276;14.416;2023-03-01T05:39:52;26.27;;;13.10;;
66609;SDS011;53468;48.276;14.416;2023-03-01T05:44:54;26.80;;;12.52;;
66609;SDS011;53468;48.276;14.416;2023-03-01T05:49:58;26.80;;;13.43;;
66609;SDS011;53468;48.276;14.416;2023-03-01T05:55:00;26.35;;;14.30;;
66609;SDS011;53468;48.276;14.416;2023-03-01T06:00:02;22.38;;;13.13;;
66609;SDS011;53468;48.276;14.416;2023-03-01T06:05:09;31.67;;;14.27;;
66609;SDS011;53468;48.276;14.416;2023-03-01T06:10:12;31.40;;;14.07;;
66609;SDS011;53468;48.276;14.416;2023-03-01T06:15:15;23.52;;;12.80;;
66609;SDS011;53468;48.276;14.416;2023-03-01T06:20:20;26.52;;;13.63;;
66609;SDS011;53468;48.276;14.416;2023-03-01T06:25:24;29.05;;;13.45;;
66609;SDS011;53468;48.276;14.416;2023-03-01T06:30:27;31.92;;;14.10;;
66609;SDS011;53468;48.276;14.416;2023-03-01T06:35:31;30.05;;;14.50;;
66609;SDS011;53468;48.276;14.416;2023-03-01T06:40:34;21.13;;;12.43;;
66609;SDS011;53468;48.276;14.416;2023-03-01T06:45:37;23.70;;;13.48;;
66609;SDS011;53468;48.276;14.416;2023-03-01T06:50:41;28.15;;;13.63;;
66609;SDS011;53468;48.276;14.416;2023-03-01T06:55:43;22.77;;;12.38;;
66609;SDS011;53468;48.276;14.416;2023-03-01T07:00:45;24.88;;;13.13;;
66609;SDS011;53468;48.276;14.416;2023-03-01T07:05:49;29.48;;;13.05;;
66609;SDS011;53468;48.276;14.416;2023-03-01T07:10:54;26.63;;;12.88;;
66609;SDS011;53468;48.276;14.416;2023-03-01T07:15:57;23.38;;;12.80;;
66609;SDS011;53468;48.276;14.416;2023-03-01T07:21:04;25.60;;;13.88;;
66609;SDS011;53468;48.276;14.416;2023-03-01T07:26:07;26.85;;;14.73;;
66609;SDS011;53468;48.276;14.416;2023-03-01T07:31:09;29.33;;;15.13;;
66609;SDS011;53468;48.276;14.416;2023-03-01T07:36:12;33.00;;;14.45;;
66609;SDS011;53468;48.276;14.416;2023-03-01T07:41:15;30.05;;;15.90;;
66609;SDS011;53468;48.276;14.416;2023-03-01T07:46:17;26.58;;;13.50;;
66609;SDS011;53468;48.276;14.416;2023-03-01T07:51:20;26.50;;;14.05;;
66609;SDS011;53468;48.276;14.416;2023-03-01T07:56:22;28.33;;;14.98;;
66609;SDS011;53468;48.276;14.416;2023-03-01T08:01:25;28.90;;;15.85;;
66609;SDS011;53468;48.276;14.416;2023-03-01T08:06:28;30.83;;;16.10;;
66609;SDS011;53468;48.276;14.416;2023-03-01T08:11:31;27.92;;;14.77;;
66609;SDS011;53468;48.276;14.416;2023-03-01T08:16:33;30.30;;;15.93;;
66609;SDS011;53468;48.276;14.416;2023-03-01T08:21:37;35.00;;;15.70;;
66609;SDS011;53468;48.276;14.416;2023-03-01T08:26:41;29.95;;;14.43;;
66609;SDS011;53468;48.276;14.416;2023-03-01T08:31:43;22.98;;;13.90;;
66609;SDS011;53468;48.276;14.416;2023-03-01T08:36:47;20.83;;;12.05;;
66609;SDS011;53468;48.276;14.416;2023-03-01T08:41:50;20.98;;;10.68;;
66609;SDS011;53468;48.276;14.416;2023-03-01T08:46:52;19.40;;;11.43;;
66609;SDS011;53468;48.276;14.416;2023-03-01T08:51:57;26.92;;;12.57;;
66609;SDS011;53468;48.276;14.416;2023-03-01T08:57:00;21.33;;;11.95;;
66609;SDS011;53468;48.276;14.416;2023-03-01T09:02:03;21.17;;;12.55;;
66609;SDS011;53468;48.276;14.416;2023-03-01T09:07:06;20.77;;;12.30;;
66609;SDS011;53468;48.276;14.416;2023-03-01T09:12:09;21.00;;;10.63;;
66609;SDS011;53468;48.276;14.416;2023-03-01T09:17:11;21.63;;;11.82;;
66609;SDS011;53468;48.276;14.416;2023-03-01T09:22:20;21.08;;;10.55;;
66609;SDS011;53468;48.276;14.416;2023-03-01T09:27:37;20.38;;;11.05;;
66609;SDS011;53468;48.276;14.416;2023-03-01T09:32:39;23.25;;;11.13;;
66609;SDS011;53468;48.276;14.416;2023-03-01T09:37:44;24.02;;;11.10;;
66609;SDS011;53468;48.276;14.416;2023-03-01T09:42:47;21.23;;;10.63;;
66609;SDS011;53468;48.276;14.416;2023-03-01T09:47:54;15.82;;;8.05;;
66609;SDS011;53468;48.276;14.416;2023-03-01T09:53:01;12.95;;;6.72;;
66609;SDS011;53468;48.276;14.416;2023-03-01T09:58:14;12.20;;;6.10;;
66609;SDS011;53468;48.276;14.416;2023-03-01T10:03:31;13.32;;;6.68;;
66609;SDS011;53468;48.276;14.416;2023-03-01T10:08:40;11.35;;;7.15;;
66609;SDS011;53468;48.276;14.416;2023-03-01T10:13:45;13.30;;;6.32;;
66609;SDS011;53468;48.276;14.416;2023-03-01T10:18:55;12.32;;;7.18;;
66609;SDS011;53468;48.276;14.416;2023-03-01T10:24:07;12.75;;;6.30;;
66609;SDS011;53468;48.276;14.416;2023-03-01T10:29:12;13.45;;;6.85;;
66609;SDS011;53468;48.276;14.416;2023-03-01T10:34:14;15.20;;;7.65;;
66609;SDS011;53468;48.276;14.416;2023-03-01T10:39:20;13.93;;;7.55;;
66609;SDS011;53468;48.276;14.416;2023-03-01T10:44:35;14.70;;;7.38;;
66609;SDS011;53468;48.276;14.416;2023-03-01T10:49:54;12.02;;;7.75;;
66609;SDS011;53468;48.276;14.416;2023-03-01T10:54:59;15.07;;;7.63;;
66609;SDS011;53468;48.276;14.416;2023-03-01T11:00:15;18.42;;;6.88;;
66609;SDS011;53468;48.276;14.416;2023-03-01T11:05:21;12.35;;;6.68;;
66609;SDS011;53468;48.276;14.416;2023-03-01T11:10:27;10.05;;;6.35;;
66609;SDS011;53468;48.276;14.416;2023-03-01T11:15:31;13.77;;;6.95;;
66609;SDS011;53468;48.276;14.416;2023-03-01T11:20:33;10.05;;;5.32;;
66609;SDS011;53468;48.276;14.416;2023-03-01T11:25:39;11.73;;;5.50;;
66609;SDS011;53468;48.276;14.416;2023-03-01T11:30:44;10.55;;;5.63;;
66609;SDS011;53468;48.276;14.416;2023-03-01T11:35:53;11.93;;;5.15;;
66609;SDS011;53468;48.276;14.416;2023-03-01T11:41:01;13.50;;;6.28;;
66609;SDS011;53468;48.276;14.416;2023-03-01T11:46:27;10.93;;;6.18;;
66609;SDS011;53468;48.276;14.416;2023-03-01T11:51:46;11.48;;;6.05;;
66609;SDS011;53468;48.276;14.416;2023-03-01T11:56:55;14.05;;;6.55;;
66609;SDS011;53468;48.276;14.416;2023-03-01T12:07:35;10.90;;;6.43;;
66609;SDS011;53468;48.276;14.416;2023-03-01T12:12:48;10.85;;;6.75;;
66609;SDS011;53468;48.276;14.416;2023-03-01T12:18:13;14.48;;;6.57;;
66609;SDS011;53468;48.276;14.416;2023-03-01T12:23:31;12.45;;;7.03;;
66609;SDS011;53468;48.276;14.416;2023-03-01T12:28:54;12.43;;;6.77;;
66609;SDS011;53468;48.276;14.416;2023-03-01T12:34:16;17.02;;;7.20;;
66609;SDS011;53468;48.276;14.416;2023-03-01T12:39:40;13.30;;;6.80;;
66609;SDS011;53468;48.276;14.416;2023-03-01T12:44:55;10.70;;;6.15;;
66609;SDS011;53468;48.276;14.416;2023-03-01T12:50:11;15.15;;;6.57;;
66609;SDS011;53468;48.276;14.416;2023-03-01T12:55:22;15.77;;;7.38;;
66609;SDS011;53468;48.276;14.416;2023-03-01T13:00:32;11.13;;;7.03;;
66609;SDS011;53468;48.276;14.416;2023-03-01T13:05:40;13.27;;;6.90;;
66609;SDS011;53468;48.276;14.416;2023-03-01T13:10:52;14.30;;;8.30;;
66609;SDS011;53468;48.276;14.416;2023-03-01T13:16:00;16.98;;;7.20;;
66609;SDS011;53468;48.276;14.416;2023-03-01T13:21:30;13.77;;;7.40;;
66609;SDS011;53468;48.276;14.416;2023-03-01T13:26:33;14.23;;;7.15;;
66609;SDS011;53468;48.276;14.416;2023-03-01T13:32:20;14.90;;;8.68;;
66609;SDS011;53468;48.276;14.416;2023-03-01T13:37:27;19.10;;;8.48;;
66609;SDS011;53468;48.276;14.416;2023-03-01T13:42:38;12.82;;;7.03;;
66609;SDS011;53468;48.276;14.416;2023-03-01T13:47:48;17.60;;;6.90;;
66609;SDS011;53468;48.276;14.416;2023-03-01T13:52:55;15.07;;;7.43;;
66609;SDS011;53468;48.276;14.416;2023-03-01T13:58:01;12.90;;;7.18;;
66609;SDS011;53468;48.276;14.416;2023-03-01T14:03:11;12.93;;;6.93;;
66609;SDS011;53468;48.276;14.416;2023-03-01T14:08:18;13.77;;;7.10;;
66609;SDS011;53468;48.276;14.416;2023-03-01T14:13:25;14.57;;;8.45;;
66609;SDS011;53468;48.276;14.416;2023-03-01T14:18:42;13.20;;;6.80;;
66609;SDS011;53468;48.276;14.416;2023-03-01T14:23:49;11.90;;;6.68;;
66609;SDS011;53468;48.276;14.416;2023-03-01T14:28:51;15.25;;;7.25;;
66609;SDS011;53468;48.276;14.416;2023-03-01T14:33:55;13.80;;;7.07;;
66609;SDS011;53468;48.276;14.416;2023-03-01T14:38:58;11.13;;;6.80;;
66609;SDS011;53468;48.276;14.416;2023-03-01T14:44:05;13.05;;;5.75;;
66609;SDS011;53468;48.276;14.416;2023-03-01T14:49:15;14.55;;;6.25;;
66609;SDS011;53468;48.276;14.416;2023-03-01T14:54:21;13.38;;;6.18;;
66609;SDS011;53468;48.276;14.416;2023-03-01T14:59:29;8.90;;;5.47;;
66609;SDS011;53468;48.276;14.416;2023-03-01T15:04:32;15.00;;;6.18;;
66609;SDS011;53468;48.276;14.416;2023-03-01T15:09:35;14.18;;;7.13;;
66609;SDS011;53468;48.276;14.416;2023-03-01T15:14:39;11.70;;;6.07;;
66609;SDS011;53468;48.276;14.416;2023-03-01T15:19:43;10.32;;;5.88;;
66609;SDS011;53468;48.276;14.416;2023-03-01T15:24:47;12.15;;;6.25;;
66609;SDS011;53468;48.276;14.416;2023-03-01T15:29:51;15.23;;;6.70;;
66609;SDS011;53468;48.276;14.416;2023-03-01T15:34:57;19.80;;;6.30;;
66609;SDS011;53468;48.276;14.416;2023-03-01T15:39:59;12.52;;;6.65;;
66609;SDS011;53468;48.276;14.416;2023-03-01T15:45:07;13.30;;;7.78;;
66609;SDS011;53468;48.276;14.416;2023-03-01T15:50:15;14.25;;;7.25;;
66609;SDS011;53468;48.276;14.416;2023-03-01T15:55:21;13.98;;;6.57;;
66609;SDS011;53468;48.276;14.416;2023-03-01T16:00:26;12.82;;;6.72;;
66609;SDS011;53468;48.276;14.416;2023-03-01T16:05:30;14.65;;;7.22;;
66609;SDS011;53468;48.276;14.416;2023-03-01T16:10:34;14.50;;;8.27;;
66609;SDS011;53468;48.276;14.416;2023-03-01T16:15:37;17.42;;;9.32;;
66609;SDS011;53468;48.276;14.416;2023-03-01T16:20:41;12.32;;;7.68;;
66609;SDS011;53468;48.276;14.416;2023-03-01T16:25:43;17.05;;;7.82;;
66609;SDS011;53468;48.276;14.416;2023-03-01T16:30:46;15.30;;;8.48;;
66609;SDS011;53468;48.276;14.416;2023-03-01T16:35:51;17.52;;;9.73;;
66609;SDS011;53468;48.276;14.416;2023-03-01T16:40:53;14.57;;;8.52;;
66609;SDS011;53468;48.276;14.416;2023-03-01T16:45:58;21.35;;;9.77;;
66609;SDS011;53468;48.276;14.416;2023-03-01T16:51:04;18.40;;;9.60;;
66609;SDS011;53468;48.276;14.416;2023-03-01T16:56:08;18.42;;;9.32;;
66609;SDS011;53468;48.276;14.416;2023-03-01T17:01:14;20.30;;;9.52;;
66609;SDS011;53468;48.276;14.416;2023-03-01T17:06:20;18.90;;;9.43;;
66609;SDS011;53468;48.276;14.416;2023-03-01T17:11:25;16.88;;;9.80;;
66609;SDS011;53468;48.276;14.416;2023-03-01T17:16:27;15.90;;;9.45;;
66609;SDS011;53468;48.276;14.416;2023-03-01T17:21:30;17.67;;;9.00;;
66609;SDS011;53468;48.276;14.416;2023-03-01T17:26:32;21.30;;;10.13;;
66609;SDS011;53468;48.276;14.416;2023-03-01T17:31:34;18.77;;;9.82;;
66609;SDS011;53468;48.276;14.416;2023-03-01T17:36:38;19.45;;;10.23;;
66609;SDS011;53468;48.276;14.416;2023-03-01T17:41:43;18.25;;;9.93;;
66609;SDS011;53468;48.276;14.416;2023-03-01T17:46:45;20.45;;;11.20;;
66609;SDS011;53468;48.276;14.416;2023-03-01T17:51:49;18.30;;;10.10;;
66609;SDS011;53468;48.276;14.416;2023-03-01T17:56:51;22.02;;;11.60;;
66609;SDS011;53468;48.276;14.416;2023-03-01T18:01:55;18.15;;;9.77;;
66609;SDS011;53468;48.276;14.416;2023-03-01T18:06:59;21.55;;;9.95;;
66609;SDS011;53468;48.276;14.416;2023-03-01T18:12:01;19.67;;;10.27;;
66609;SDS011;53468;48.276;14.416;2023-03-01T18:17:03;21.00;;;11.13;;
66609;SDS011;53468;48.276;14.416;2023-03-01T18:22:13;23.45;;;10.65;;
66609;SDS011;53468;48.276;14.416;2023-03-01T18:27:15;20.35;;;10.60;;
66609;SDS011;53468;48.276;14.416;2023-03-01T18:32:17;17.27;;;9.98;;
66609;SDS011;53468;48.276;14.416;2023-03-01T18:37:21;19.60;;;10.70;;
66609;SDS011;53468;48.276;14.416;2023-03-01T18:42:23;23.40;;;12.05;;
66609;SDS011;53468;48.276;14.416;2023-03-01T18:47:25;21.42;;;11.18;;
66609;SDS011;53468;48.276;14.416;2023-03-01T18:52:29;21.13;;;10.52;;
66609;SDS011;53468;48.276;14.416;2023-03-01T18:57:31;20.17;;;11.18;;
66609;SDS011;53468;48.276;14.416;2023-03-01T19:02:33;23.67;;;11.63;;
66609;SDS011;53468;48.276;14.416;2023-03-01T19:07:36;18.70;;;11.10;;
66609;SDS011;53468;48.276;14.416;2023-03-01T19:12:38;22.40;;;11.45;;
66609;SDS011;53468;48.276;14.416;2023-03-01T19:17:40;23.92;;;11.75;;
66609;SDS011;53468;48.276;14.416;2023-03-01T19:22:44;22.75;;;10.88;;
66609;SDS011;53468;48.276;14.416;2023-03-01T19:27:46;24.75;;;11.80;;
66609;SDS011;53468;48.276;14.416;2023-03-01T19:32:48;22.35;;;11.38;;
66609;SDS011;53468;48.276;14.416;2023-03-01T19:37:52;19.42;;;10.85;;
66609;SDS011;53468;48.276;14.416;2023-03-01T19:42:54;21.67;;;10.82;;
66609;SDS011;53468;48.276;14.416;2023-03-01T19:47:56;22.58;;;10.82;;
66609;SDS011;53468;48.276;14.416;2023-03-01T19:53:00;24.45;;;11.00;;
66609;SDS011;53468;48.276;14.416;2023-03-01T19:58:02;26.38;;;12.27;;
66609;SDS011;53468;48.276;14.416;2023-03-01T20:03:05;21.90;;;11.65;;
66609;SDS011;53468;48.276;14.416;2023-03-01T20:08:09;20.75;;;11.13;;
66609;SDS011;53468;48.276;14.416;2023-03-01T20:13:11;21.30;;;12.20;;
66609;SDS011;53468;48.276;14.416;2023-03-01T20:18:13;21.58;;;11.13;;
66609;SDS011;53468;48.276;14.416;2023-03-01T20:23:16;20.52;;;11.00;;
66609;SDS011;53468;48.276;14.416;2023-03-01T20:28:19;23.90;;;11.82;;
66609;SDS011;53468;48.276;14.416;2023-03-01T20:33:21;23.85;;;10.95;;
66609;SDS011;53468;48.276;14.416;2023-03-01T20:38:25;20.77;;;11.48;;
66609;SDS011;53468;48.276;14.416;2023-03-01T20:43:28;21.77;;;10.85;;
66609;SDS011;53468;48.276;14.416;2023-03-01T20:48:30;18.88;;;9.38;;
66609;SDS011;53468;48.276;14.416;2023-03-01T20:53:34;19.38;;;10.80;;
66609;SDS011;53468;48.276;14.416;2023-03-01T20:58:36;21.58;;;10.98;;
66609;SDS011;53468;48.276;14.416;2023-03-01T21:03:38;16.42;;;9.40;;
66609;SDS011;53468;48.276;14.416;2023-03-01T21:08:42;25.38;;;10.38;;
66609;SDS011;53468;48.276;14.416;2023-03-01T21:13:44;17.88;;;8.90;;
66609;SDS011;53468;48.276;14.416;2023-03-01T21:18:46;17.45;;;8.75;;
66609;SDS011;53468;48.276;14.416;2023-03-01T21:23:50;19.05;;;9.07;;
66609;SDS011;53468;48.276;14.416;2023-03-01T21:28:55;18.52;;;9.27;;
66609;SDS011;53468;48.276;14.416;2023-03-01T21:34:00;14.35;;;7.25;;
66609;SDS011;53468;48.276;14.416;2023-03-01T21:39:05;18.40;;;8.75;;
66609;SDS011;53468;48.276;14.416;2023-03-01T21:44:07;11.93;;;7.22;;
66609;SDS011;53468;48.276;14.416;2023-03-01T21:49:09;19.88;;;8.43;;
66609;SDS011;53468;48.276;14.416;2023-03-01T21:54:14;19.13;;;9.32;;
66609;SDS011;53468;48.276;14.416;2023-03-01T21:59:18;15.88;;;8.80;;
66609;SDS011;53468;48.276;14.416;2023-03-01T22:04:22;19.33;;;9.82;;
66609;SDS011;53468;48.276;14.416;2023-03-01T22:09:25;17.17;;;8.50;;
66609;SDS011;53468;48.276;14.416;2023-03-01T22:14:28;20.05;;;8.43;;
66609;SDS011;53468;48.276;14.416;2023-03-01T22:19:31;18.38;;;9.80;;
66609;SDS011;53468;48.276;14.416;2023-03-01T22:24:35;17.90;;;9.35;;
66609;SDS011;53468;48.276;14.416;2023-03-01T22:29:37;16.63;;;7.90;;
66609;SDS011;53468;48.276;14.416;2023-03-01T22:34:39;17.58;;;8.57;;
66609;SDS011;53468;48.276;14.416;2023-03-01T22:39:42;16.17;;;8.48;;
66609;SDS011;53468;48.276;14.416;2023-03-01T22:44:44;18.48;;;8.38;;
66609;SDS011;53468;48.276;14.416;2023-03-01T22:49:46;16.83;;;9.20;;
66609;SDS011;53468;48.276;14.416;2023-03-01T22:54:52;18.63;;;10.50;;
66609;SDS011;53468;48.276;14.416;2023-03-01T22:59:54;23.23;;;9.98;;
66609;SDS011;53468;48.276;14.416;2023-03-01T23:04:56;18.73;;;10.77;;
66609;SDS011;53468;48.276;14.416;2023-03-01T23:10:00;19.10;;;9.27;;
66609;SDS011;53468;48.276;14.416;2023-03-01T23:15:02;23.10;;;10.40;;
66609;SDS011;53468;48.276;14.416;2023-03-01T23:20:05;22.70;;;10.00;;
66609;SDS011;53468;48.276;14.416;2023-03-01T23:25:11;18.92;;;9.90;;
66609;SDS011;53468;48.276;14.416;2023-03-01T23:30:14;22.55;;;9.75;;
66609;SDS011;53468;48.276;14.416;2023-03-01T23:35:16;19.17;;;9.23;;
66609;SDS011;53468;48.276;14.416;2023-03-01T23:40:20;22.98;;;10.80;;
66609;SDS011;53468;48.276;14.416;2023-03-01T23:45:23;22.63;;;10.57;;
66609;SDS011;53468;48.276;14.416;2023-03-01T23:50:25;18.30;;;9.43;;
66609;SDS011;53468;48.276;14.416;2023-03-01T23:55:28;20.77;;;9.77;;
